Pagina principale
METAR-TAF:

METAR-TAF

Aeroporti :

Torino, Italia

Aeroporto di Torino-Caselle

latitudine: 45-13N, longitudine: 007-39E, altezza: 301 m

Osservazione

Il bollettino è stato emesso 33 minuti fa, alle 15:20 UTC
Vento 2 kt da sud-est
Temperature 12°C
Umidità 54%
Pressione 1012 hPa
Visibilità 10 km o più
nessuna nube inferiore a 1500 m e nessun cumulonembo

METAR: LIMF 191520Z 13002KT CAVOK 12/03 Q1012

Ora: 16:53 (15:53 UTC)

Previsione

Il bollettino è stato emesso 4 ore e 53 minuti fa, alle 11:00 UTC
Previsione valida dal 19 alle 12 UTC al 20 alle 12 UTC
Vento 5 kt da direzioni variabili
Visibilità 10 km o più
nessuna nube inferiore a 1500 m e nessun cumulonembo
Temporaneamente
dal 20 alle 02 UTC al 20 alle 07 UTC
Visibilità: 1500 m
banchi di nebbia

TAF: LIMF 191100Z 1912/2012 VRB05KT CAVOK TEMPO 2002/2007 1500 BCFG

Osservazioni e previsioni meteorologiche di più di 4000 aeroporti (messaggi METAR e TAF).

Le stazioni disponibili sono rappresentate dai dischi gialli e rossi sulla carta.

Puntare il mouse per vedere il nome della stazione.

Clicca sopra per visualizzare le osservazioni e previsioni meteorologiche.

Per cambiare la mappa : fare clic sui pulsanti verdi con una croce nera per ingrandire, il pulsante verde con un trattino per diminuire, o sulla freccia verde per le mappe adiacenti.


METAR-TAF: